Terminal Aerodrome Forecast
Issued by NWS

Home | Current Version | Previous Version | Text Only | Print | Product List | Glossary On
Versions: 1 2 3 4 5 6 7 8 9 10 11 12 13 14 15 16 17 18 19 20
941
FTUS43 KOAX 281722
TAFCDR
TAF
KCDR 281722Z 2818/2918 11006KT P6SM BKN050
     FM282000 15008KT P6SM SCT050
     FM290300 19007KT P6SM SCT250=

USA.gov is the U.S. government's official web portal to all federal, state and local government web resources and services.